This is the latest recevied weather packets stored in our database for station/object W0SS-13. If no packets are shown the sender has not sent any weather packets the latest 1 day(s).
| Time | Temp. | Humidity | Pressure | Rain* | Wind** | Luminosity | Snow |
|---|---|---|---|---|---|---|---|
| 1778010299 | 9.44° C | 81% | 1013.4 hPa | 0 mm | 0.45 m/s, 5° | 157 W/m² | - |
| 1778010001 | 9.44° C | 82% | 1013.3 hPa | 0 mm | 0 m/s | 109 W/m² | - |
| 1778009696 | 9.44° C | 81% | 1013.3 hPa | 0 mm | 1.34 m/s, 33° | 126 W/m² | - |
| 1778009393 | 9.44° C | 81% | 1012.9 hPa | 0 mm | 0.45 m/s, 26° | 147 W/m² | - |
| 1778009091 | 8.89° C | 81% | 1012.9 hPa | 0 mm | 0.89 m/s, 101° | 203 W/m² | - |
| 1778008783 | 9.44° C | 81% | 1012.7 hPa | 0 mm | 0.45 m/s, 65° | 157 W/m² | - |
| 1778008482 | 9.44° C | 82% | 1012.9 hPa | 0 mm | 0 m/s | 183 W/m² | - |
| 1778008178 | 8.89° C | 82% | 1013.2 hPa | 0 mm | 0.89 m/s, 156° | 173 W/m² | - |
| 1778007873 | 8.89° C | 81% | 1013.1 hPa | 0 mm | 0 m/s | 187 W/m² | - |
| 1778007569 | 8.89° C | 83% | 1013 hPa | 0 mm | 0 m/s | 181 W/m² | - |
| 1778007267 | 8.89° C | 83% | 1013.2 hPa | 0 mm | 0.45 m/s, 85° | 132 W/m² | - |
| 1778006963 | 8.89° C | 85% | 1013.3 hPa | 0 mm | 0 m/s | 127 W/m² | - |
| 1778006660 | 8.89° C | 84% | 1013.3 hPa | 0 mm | 0 m/s | 127 W/m² | - |
| 1778006356 | 8.89° C | 84% | 1013.4 hPa | 0 mm | 0 m/s | 144 W/m² | - |
| 1778006053 | 8.89° C | 84% | 1013.5 hPa | 0 mm | 0.45 m/s, 126° | 127 W/m² | - |
| 1778005750 | 8.89° C | 85% | 1013.7 hPa | 0 mm | 0.89 m/s, 26° | 159 W/m² | - |
| 1778005447 | 8.89° C | 85% | 1013.7 hPa | 0 mm | 0 m/s | 182 W/m² | - |
| 1778005143 | 8.89° C | 84% | 1013.9 hPa | 0 mm | 0.89 m/s, 26° | 154 W/m² | - |
| 1778004841 | 8.89° C | 84% | 1013.9 hPa | 0 mm | 0.89 m/s, 79° | 157 W/m² | - |
| 1778004537 | 8.33° C | 84% | 1013.9 hPa | 0 mm | 0 m/s | 170 W/m² | - |
| 1778004234 | 8.33° C | 83% | 1014 hPa | 0 mm | 1.34 m/s, 13° | 124 W/m² | - |
| 1778003930 | 8.33° C | 84% | 1014 hPa | 0 mm | 1.34 m/s, 153° | 137 W/m² | - |
| 1778003627 | 8.89° C | 83% | 1014 hPa | 0 mm | 0.89 m/s, 81° | 160 W/m² | - |
| 1778003323 | 8.33° C | 83% | 1014 hPa | 0 mm | 0.45 m/s, 68° | 181 W/m² | - |
| 1778003021 | 8.33° C | 83% | 1014.1 hPa | 0 mm | 0.89 m/s, 57° | 204 W/m² | - |
* Rain latest hour (hover to see other rain measurements)
** Current wind speed in m/s (hover to see current wind gust speed)